sensor_id;sensor_type;location;lat;lon;timestamp;P1;P2;P0
69224;PMS1003;56333;51.306;17.056;2023-02-15T00:01:08;53.50;26.10;
69224;PMS1003;56333;51.306;17.056;2023-02-15T00:02:38;49.20;25.30;
69224;PMS1003;56333;51.306;17.056;2023-02-15T00:04:08;48.70;23.20;
69224;PMS1003;56333;51.306;17.056;2023-02-15T00:05:38;46.10;24.30;
69224;PMS1003;56333;51.306;17.056;2023-02-15T00:07:09;46.00;24.40;
69224;PMS1003;56333;51.306;17.056;2023-02-15T00:08:39;47.80;24.40;
69224;PMS1003;56333;51.306;17.056;2023-02-15T00:10:11;48.60;24.90;
69224;PMS1003;56333;51.306;17.056;2023-02-15T00:11:41;48.80;25.20;
69224;PMS1003;56333;51.306;17.056;2023-02-15T00:13:16;48.00;25.30;
69224;PMS1003;56333;51.306;17.056;2023-02-15T00:14:45;50.20;25.10;
69224;PMS1003;56333;51.306;17.056;2023-02-15T00:16:15;50.50;25.00;
69224;PMS1003;56333;51.306;17.056;2023-02-15T00:17:44;47.10;24.40;
69224;PMS1003;56333;51.306;17.056;2023-02-15T00:19:17;49.10;24.50;
69224;PMS1003;56333;51.306;17.056;2023-02-15T00:20:47;46.40;22.80;
69224;PMS1003;56333;51.306;17.056;2023-02-15T00:22:16;40.20;22.30;
69224;PMS1003;56333;51.306;17.056;2023-02-15T00:23:46;47.10;22.00;
69224;PMS1003;56333;51.306;17.056;2023-02-15T00:25:16;44.90;22.40;
69224;PMS1003;56333;51.306;17.056;2023-02-15T00:26:48;46.90;24.00;
69224;PMS1003;56333;51.306;17.056;2023-02-15T00:28:17;48.30;24.40;
69224;PMS1003;56333;51.306;17.056;2023-02-15T00:29:47;47.70;23.80;
69224;PMS1003;56333;51.306;17.056;2023-02-15T00:31:17;48.90;24.90;
69224;PMS1003;56333;51.306;17.056;2023-02-15T00:32:48;51.30;24.20;
69224;PMS1003;56333;51.306;17.056;2023-02-15T00:34:20;51.60;25.30;
69224;PMS1003;56333;51.306;17.056;2023-02-15T00:35:59;50.20;24.80;
69224;PMS1003;56333;51.306;17.056;2023-02-15T00:37:28;47.80;22.30;
69224;PMS1003;56333;51.306;17.056;2023-02-15T00:38:58;44.00;22.10;
69224;PMS1003;56333;51.306;17.056;2023-02-15T00:40:27;44.90;21.90;
69224;PMS1003;56333;51.306;17.056;2023-02-15T00:41:56;44.90;22.70;
69224;PMS1003;56333;51.306;17.056;2023-02-15T00:43:26;44.60;22.80;
69224;PMS1003;56333;51.306;17.056;2023-02-15T00:44:56;44.50;22.80;
69224;PMS1003;56333;51.306;17.056;2023-02-15T00:46:28;48.40;24.10;
69224;PMS1003;56333;51.306;17.056;2023-02-15T00:47:57;49.60;25.60;
69224;PMS1003;56333;51.306;17.056;2023-02-15T00:49:27;47.30;24.50;
69224;PMS1003;56333;51.306;17.056;2023-02-15T00:50:58;50.90;24.40;
69224;PMS1003;56333;51.306;17.056;2023-02-15T00:52:27;49.90;23.80;
69224;PMS1003;56333;51.306;17.056;2023-02-15T00:53:57;47.10;23.80;
69224;PMS1003;56333;51.306;17.056;2023-02-15T00:55:26;50.10;23.80;
69224;PMS1003;56333;51.306;17.056;2023-02-15T00:56:56;43.80;23.10;
69224;PMS1003;56333;51.306;17.056;2023-02-15T00:58:25;46.20;23.10;
69224;PMS1003;56333;51.306;17.056;2023-02-15T00:59:54;44.20;22.40;
69224;PMS1003;56333;51.306;17.056;2023-02-15T01:01:24;40.10;20.70;
69224;PMS1003;56333;51.306;17.056;2023-02-15T01:02:53;40.50;20.70;
69224;PMS1003;56333;51.306;17.056;2023-02-15T01:04:22;42.10;21.20;
69224;PMS1003;56333;51.306;17.056;2023-02-15T01:05:51;43.90;22.70;
69224;PMS1003;56333;51.306;17.056;2023-02-15T01:07:21;45.10;23.70;
69224;PMS1003;56333;51.306;17.056;2023-02-15T01:08:49;48.80;24.20;
69224;PMS1003;56333;51.306;17.056;2023-02-15T01:10:19;47.50;23.90;
69224;PMS1003;56333;51.306;17.056;2023-02-15T01:11:48;46.90;24.20;
69224;PMS1003;56333;51.306;17.056;2023-02-15T01:13:19;45.50;23.30;
69224;PMS1003;56333;51.306;17.056;2023-02-15T01:14:48;47.20;24.50;
69224;PMS1003;56333;51.306;17.056;2023-02-15T01:16:19;50.30;24.70;
69224;PMS1003;56333;51.306;17.056;2023-02-15T01:17:48;49.50;24.00;
69224;PMS1003;56333;51.306;17.056;2023-02-15T01:19:21;47.80;24.10;
69224;PMS1003;56333;51.306;17.056;2023-02-15T01:20:50;50.20;24.10;
69224;PMS1003;56333;51.306;17.056;2023-02-15T01:22:19;43.40;22.00;
69224;PMS1003;56333;51.306;17.056;2023-02-15T01:23:48;52.30;24.50;
69224;PMS1003;56333;51.306;17.056;2023-02-15T01:25:18;50.20;24.90;
69224;PMS1003;56333;51.306;17.056;2023-02-15T01:26:48;47.30;23.20;
69224;PMS1003;56333;51.306;17.056;2023-02-15T01:28:17;46.10;23.80;
69224;PMS1003;56333;51.306;17.056;2023-02-15T01:29:46;49.60;25.20;
69224;PMS1003;56333;51.306;17.056;2023-02-15T01:31:17;46.60;23.80;
69224;PMS1003;56333;51.306;17.056;2023-02-15T01:32:47;46.70;24.40;
69224;PMS1003;56333;51.306;17.056;2023-02-15T01:34:16;47.60;23.40;
69224;PMS1003;56333;51.306;17.056;2023-02-15T01:35:45;46.50;23.10;
69224;PMS1003;56333;51.306;17.056;2023-02-15T01:37:16;41.50;21.70;
69224;PMS1003;56333;51.306;17.056;2023-02-15T01:38:45;44.70;22.30;
69224;PMS1003;56333;51.306;17.056;2023-02-15T01:40:18;42.20;22.20;
69224;PMS1003;56333;51.306;17.056;2023-02-15T01:41:47;41.90;20.90;
69224;PMS1003;56333;51.306;17.056;2023-02-15T01:43:17;41.70;20.50;
69224;PMS1003;56333;51.306;17.056;2023-02-15T01:44:54;40.30;20.90;
69224;PMS1003;56333;51.306;17.056;2023-02-15T01:46:28;42.10;20.70;
69224;PMS1003;56333;51.306;17.056;2023-02-15T01:48:05;39.30;21.30;
69224;PMS1003;56333;51.306;17.056;2023-02-15T01:49:39;38.90;20.50;
69224;PMS1003;56333;51.306;17.056;2023-02-15T01:51:10;41.60;21.50;
69224;PMS1003;56333;51.306;17.056;2023-02-15T01:52:42;41.50;21.10;
69224;PMS1003;56333;51.306;17.056;2023-02-15T01:54:21;42.00;21.60;
69224;PMS1003;56333;51.306;17.056;2023-02-15T01:55:57;42.00;21.20;
69224;PMS1003;56333;51.306;17.056;2023-02-15T01:57:29;45.80;22.50;
69224;PMS1003;56333;51.306;17.056;2023-02-15T01:59:02;41.30;21.30;
69224;PMS1003;56333;51.306;17.056;2023-02-15T02:00:35;39.00;20.70;
69224;PMS1003;56333;51.306;17.056;2023-02-15T02:02:05;36.00;18.70;
69224;PMS1003;56333;51.306;17.056;2023-02-15T02:03:44;39.60;19.20;
69224;PMS1003;56333;51.306;17.056;2023-02-15T02:05:21;38.00;19.90;
69224;PMS1003;56333;51.306;17.056;2023-02-15T02:06:52;40.00;21.40;
69224;PMS1003;56333;51.306;17.056;2023-02-15T02:08:22;37.70;20.80;
69224;PMS1003;56333;51.306;17.056;2023-02-15T02:09:51;40.70;21.30;
69224;PMS1003;56333;51.306;17.056;2023-02-15T02:11:24;43.20;21.20;
69224;PMS1003;56333;51.306;17.056;2023-02-15T02:12:56;41.50;21.30;
69224;PMS1003;56333;51.306;17.056;2023-02-15T02:14:27;39.30;21.50;
69224;PMS1003;56333;51.306;17.056;2023-02-15T02:16:02;44.10;22.20;
69224;PMS1003;56333;51.306;17.056;2023-02-15T02:17:46;41.60;20.90;
69224;PMS1003;56333;51.306;17.056;2023-02-15T02:20:10;42.00;21.20;
69224;PMS1003;56333;51.306;17.056;2023-02-15T02:22:30;40.90;19.60;
69224;PMS1003;56333;51.306;17.056;2023-02-15T02:24:55;39.00;19.80;
69224;PMS1003;56333;51.306;17.056;2023-02-15T02:27:34;36.40;18.30;
69224;PMS1003;56333;51.306;17.056;2023-02-15T02:29:47;35.30;19.10;
69224;PMS1003;56333;51.306;17.056;2023-02-15T02:32:10;37.00;19.90;
69224;PMS1003;56333;51.306;17.056;2023-02-15T02:34:02;38.60;20.60;
69224;PMS1003;56333;51.306;17.056;2023-02-15T02:35:40;42.70;21.40;
69224;PMS1003;56333;51.306;17.056;2023-02-15T02:37:19;44.60;21.60;
69224;PMS1003;56333;51.306;17.056;2023-02-15T02:39:04;40.70;21.30;
69224;PMS1003;56333;51.306;17.056;2023-02-15T02:40:50;42.90;21.50;
69224;PMS1003;56333;51.306;17.056;2023-02-15T02:42:28;48.70;24.40;
69224;PMS1003;56333;51.306;17.056;2023-02-15T02:44:10;47.90;24.00;
69224;PMS1003;56333;51.306;17.056;2023-02-15T02:45:47;48.70;23.40;
69224;PMS1003;56333;51.306;17.056;2023-02-15T02:47:25;45.60;21.70;
69224;PMS1003;56333;51.306;17.056;2023-02-15T02:48:57;41.30;21.60;
69224;PMS1003;56333;51.306;17.056;2023-02-15T02:50:31;44.80;22.80;
69224;PMS1003;56333;51.306;17.056;2023-02-15T02:52:04;45.00;22.70;
69224;PMS1003;56333;51.306;17.056;2023-02-15T02:53:34;44.00;22.50;
69224;PMS1003;56333;51.306;17.056;2023-02-15T02:55:07;47.10;23.20;
69224;PMS1003;56333;51.306;17.056;2023-02-15T02:56:43;51.40;24.10;
69224;PMS1003;56333;51.306;17.056;2023-02-15T02:58:21;46.50;23.20;
69224;PMS1003;56333;51.306;17.056;2023-02-15T02:59:56;48.60;24.30;
69224;PMS1003;56333;51.306;17.056;2023-02-15T03:01:29;44.00;22.60;
69224;PMS1003;56333;51.306;17.056;2023-02-15T03:03:05;48.90;24.20;
69224;PMS1003;56333;51.306;17.056;2023-02-15T03:04:39;47.20;23.70;
69224;PMS1003;56333;51.306;17.056;2023-02-15T03:06:13;44.10;22.50;
69224;PMS1003;56333;51.306;17.056;2023-02-15T03:07:51;42.80;22.50;
69224;PMS1003;56333;51.306;17.056;2023-02-15T03:09:27;43.70;20.60;
69224;PMS1003;56333;51.306;17.056;2023-02-15T03:11:03;43.70;22.30;
69224;PMS1003;56333;51.306;17.056;2023-02-15T03:12:36;40.20;21.50;
69224;PMS1003;56333;51.306;17.056;2023-02-15T03:14:07;44.30;22.30;
69224;PMS1003;56333;51.306;17.056;2023-02-15T03:15:38;43.50;22.20;
69224;PMS1003;56333;51.306;17.056;2023-02-15T03:17:29;46.20;22.60;
69224;PMS1003;56333;51.306;17.056;2023-02-15T03:19:07;46.50;23.90;
69224;PMS1003;56333;51.306;17.056;2023-02-15T03:20:39;46.10;23.60;
69224;PMS1003;56333;51.306;17.056;2023-02-15T03:22:12;42.60;23.20;
69224;PMS1003;56333;51.306;17.056;2023-02-15T03:23:45;48.00;22.70;
69224;PMS1003;56333;51.306;17.056;2023-02-15T03:25:18;46.10;23.70;
69224;PMS1003;56333;51.306;17.056;2023-02-15T03:26:51;43.20;23.10;
69224;PMS1003;56333;51.306;17.056;2023-02-15T03:28:25;44.90;21.90;
69224;PMS1003;56333;51.306;17.056;2023-02-15T03:29:59;40.10;21.10;
69224;PMS1003;56333;51.306;17.056;2023-02-15T03:31:31;40.40;20.90;
69224;PMS1003;56333;51.306;17.056;2023-02-15T03:33:04;40.70;21.70;
69224;PMS1003;56333;51.306;17.056;2023-02-15T03:34:35;42.40;22.30;
69224;PMS1003;56333;51.306;17.056;2023-02-15T03:36:08;38.80;21.30;
69224;PMS1003;56333;51.306;17.056;2023-02-15T03:37:51;48.20;22.80;
69224;PMS1003;56333;51.306;17.056;2023-02-15T03:39:29;42.90;22.00;
69224;PMS1003;56333;51.306;17.056;2023-02-15T03:41:00;44.70;22.90;
69224;PMS1003;56333;51.306;17.056;2023-02-15T03:42:39;42.90;22.20;
69224;PMS1003;56333;51.306;17.056;2023-02-15T03:44:15;44.10;21.80;
69224;PMS1003;56333;51.306;17.056;2023-02-15T03:45:51;43.20;22.60;
69224;PMS1003;56333;51.306;17.056;2023-02-15T03:47:26;42.40;22.80;
69224;PMS1003;56333;51.306;17.056;2023-02-15T03:49:00;44.40;22.10;
69224;PMS1003;56333;51.306;17.056;2023-02-15T03:50:33;45.20;22.80;
69224;PMS1003;56333;51.306;17.056;2023-02-15T03:52:22;40.70;21.80;
69224;PMS1003;56333;51.306;17.056;2023-02-15T03:53:54;41.00;21.30;
69224;PMS1003;56333;51.306;17.056;2023-02-15T03:55:24;38.80;20.80;
69224;PMS1003;56333;51.306;17.056;2023-02-15T03:56:55;40.90;21.30;
69224;PMS1003;56333;51.306;17.056;2023-02-15T03:58:40;39.60;21.10;
69224;PMS1003;56333;51.306;17.056;2023-02-15T04:00:27;43.60;22.00;
69224;PMS1003;56333;51.306;17.056;2023-02-15T04:02:18;43.20;22.70;
69224;PMS1003;56333;51.306;17.056;2023-02-15T04:03:57;44.80;22.90;
69224;PMS1003;56333;51.306;17.056;2023-02-15T04:05:30;42.90;22.30;
69224;PMS1003;56333;51.306;17.056;2023-02-15T04:07:00;42.40;21.90;
69224;PMS1003;56333;51.306;17.056;2023-02-15T04:08:36;47.30;22.40;
69224;PMS1003;56333;51.306;17.056;2023-02-15T04:10:23;42.30;22.20;
69224;PMS1003;56333;51.306;17.056;2023-02-15T04:12:10;48.30;24.70;
69224;PMS1003;56333;51.306;17.056;2023-02-15T04:13:39;52.30;26.00;
69224;PMS1003;56333;51.306;17.056;2023-02-15T04:15:12;47.60;25.00;
69224;PMS1003;56333;51.306;17.056;2023-02-15T04:16:59;46.60;24.90;
69224;PMS1003;56333;51.306;17.056;2023-02-15T04:18:30;45.10;22.90;
69224;PMS1003;56333;51.306;17.056;2023-02-15T04:20:18;41.90;23.50;
69224;PMS1003;56333;51.306;17.056;2023-02-15T04:22:04;46.00;23.70;
69224;PMS1003;56333;51.306;17.056;2023-02-15T04:23:51;38.30;20.40;
69224;PMS1003;56333;51.306;17.056;2023-02-15T04:25:38;39.20;21.50;
69224;PMS1003;56333;51.306;17.056;2023-02-15T04:27:08;38.20;20.20;
69224;PMS1003;56333;51.306;17.056;2023-02-15T04:28:37;38.40;20.70;
69224;PMS1003;56333;51.306;17.056;2023-02-15T04:30:08;45.10;24.20;
69224;PMS1003;56333;51.306;17.056;2023-02-15T04:31:39;41.40;23.10;
69224;PMS1003;56333;51.306;17.056;2023-02-15T04:33:14;39.70;22.60;
69224;PMS1003;56333;51.306;17.056;2023-02-15T04:34:44;37.30;19.80;
69224;PMS1003;56333;51.306;17.056;2023-02-15T04:36:14;32.90;17.50;
69224;PMS1003;56333;51.306;17.056;2023-02-15T04:37:44;32.70;17.50;
69224;PMS1003;56333;51.306;17.056;2023-02-15T04:39:15;32.70;18.20;
69224;PMS1003;56333;51.306;17.056;2023-02-15T04:40:45;32.80;17.00;
69224;PMS1003;56333;51.306;17.056;2023-02-15T04:42:18;32.50;17.60;
69224;PMS1003;56333;51.306;17.056;2023-02-15T04:43:47;33.70;18.00;
69224;PMS1003;56333;51.306;17.056;2023-02-15T04:45:17;31.40;17.40;
69224;PMS1003;56333;51.306;17.056;2023-02-15T04:46:46;31.40;17.80;
69224;PMS1003;56333;51.306;17.056;2023-02-15T04:48:16;33.10;17.90;
69224;PMS1003;56333;51.306;17.056;2023-02-15T04:49:45;35.80;18.10;
69224;PMS1003;56333;51.306;17.056;2023-02-15T04:51:14;32.50;18.10;
69224;PMS1003;56333;51.306;17.056;2023-02-15T04:52:43;32.90;17.40;
69224;PMS1003;56333;51.306;17.056;2023-02-15T04:54:12;34.20;17.90;
69224;PMS1003;56333;51.306;17.056;2023-02-15T04:55:41;30.10;15.10;
69224;PMS1003;56333;51.306;17.056;2023-02-15T04:57:11;30.00;16.10;
69224;PMS1003;56333;51.306;17.056;2023-02-15T04:58:40;29.70;15.60;
69224;PMS1003;56333;51.306;17.056;2023-02-15T05:00:12;28.10;15.50;
69224;PMS1003;56333;51.306;17.056;2023-02-15T05:01:42;30.10;15.80;
69224;PMS1003;56333;51.306;17.056;2023-02-15T05:03:11;31.40;17.00;
69224;PMS1003;56333;51.306;17.056;2023-02-15T05:04:41;30.60;15.90;
69224;PMS1003;56333;51.306;17.056;2023-02-15T05:06:10;33.30;17.10;
69224;PMS1003;56333;51.306;17.056;2023-02-15T05:07:40;31.40;16.20;
69224;PMS1003;56333;51.306;17.056;2023-02-15T05:09:10;30.70;16.20;
69224;PMS1003;56333;51.306;17.056;2023-02-15T05:10:39;32.70;16.00;
69224;PMS1003;56333;51.306;17.056;2023-02-15T05:12:09;30.40;16.50;
69224;PMS1003;56333;51.306;17.056;2023-02-15T05:13:38;28.20;15.90;
69224;PMS1003;56333;51.306;17.056;2023-02-15T05:15:08;29.30;16.60;
69224;PMS1003;56333;51.306;17.056;2023-02-15T05:16:38;35.40;17.40;
69224;PMS1003;56333;51.306;17.056;2023-02-15T05:18:07;34.90;18.20;
69224;PMS1003;56333;51.306;17.056;2023-02-15T05:19:36;32.40;18.10;
69224;PMS1003;56333;51.306;17.056;2023-02-15T05:21:06;38.20;20.40;
69224;PMS1003;56333;51.306;17.056;2023-02-15T05:22:34;38.00;20.40;
69224;PMS1003;56333;51.306;17.056;2023-02-15T05:24:05;37.40;19.80;
69224;PMS1003;56333;51.306;17.056;2023-02-15T05:25:54;37.90;19.60;
69224;PMS1003;56333;51.306;17.056;2023-02-15T05:27:41;41.10;20.60;
69224;PMS1003;56333;51.306;17.056;2023-02-15T05:29:27;39.30;20.40;
69224;PMS1003;56333;51.306;17.056;2023-02-15T05:31:07;38.40;19.70;
69224;PMS1003;56333;51.306;17.056;2023-02-15T05:32:36;42.00;21.30;
69224;PMS1003;56333;51.306;17.056;2023-02-15T05:34:05;38.90;21.40;
69224;PMS1003;56333;51.306;17.056;2023-02-15T05:35:35;43.10;22.50;
69224;PMS1003;56333;51.306;17.056;2023-02-15T05:37:04;40.50;20.80;
69224;PMS1003;56333;51.306;17.056;2023-02-15T05:38:33;40.70;21.60;
69224;PMS1003;56333;51.306;17.056;2023-02-15T05:40:03;43.00;21.60;
69224;PMS1003;56333;51.306;17.056;2023-02-15T05:41:33;41.70;21.00;
69224;PMS1003;56333;51.306;17.056;2023-02-15T05:43:03;41.20;20.90;
69224;PMS1003;56333;51.306;17.056;2023-02-15T05:44:32;43.90;21.60;
69224;PMS1003;56333;51.306;17.056;2023-02-15T05:46:01;41.20;21.50;
69224;PMS1003;56333;51.306;17.056;2023-02-15T05:47:32;40.70;21.40;
69224;PMS1003;56333;51.306;17.056;2023-02-15T05:49:00;38.60;20.00;
69224;PMS1003;56333;51.306;17.056;2023-02-15T05:50:29;39.60;20.40;
69224;PMS1003;56333;51.306;17.056;2023-02-15T05:52:00;42.70;21.80;
69224;PMS1003;56333;51.306;17.056;2023-02-15T05:53:30;44.30;23.10;
69224;PMS1003;56333;51.306;17.056;2023-02-15T05:55:00;45.90;22.80;
69224;PMS1003;56333;51.306;17.056;2023-02-15T05:56:30;41.60;21.20;
69224;PMS1003;56333;51.306;17.056;2023-02-15T05:58:12;43.40;22.70;
69224;PMS1003;56333;51.306;17.056;2023-02-15T05:59:42;45.30;22.80;
69224;PMS1003;56333;51.306;17.056;2023-02-15T06:01:13;43.40;22.00;
69224;PMS1003;56333;51.306;17.056;2023-02-15T06:02:43;44.60;22.60;
69224;PMS1003;56333;51.306;17.056;2023-02-15T06:04:12;43.20;22.20;
69224;PMS1003;56333;51.306;17.056;2023-02-15T06:05:41;46.70;22.20;
69224;PMS1003;56333;51.306;17.056;2023-02-15T06:07:10;41.70;21.50;
69224;PMS1003;56333;51.306;17.056;2023-02-15T06:08:40;42.50;21.50;
69224;PMS1003;56333;51.306;17.056;2023-02-15T06:10:11;43.30;22.30;
69224;PMS1003;56333;51.306;17.056;2023-02-15T06:11:40;45.70;21.80;
69224;PMS1003;56333;51.306;17.056;2023-02-15T06:13:10;43.40;22.00;
69224;PMS1003;56333;51.306;17.056;2023-02-15T06:14:38;43.90;22.60;
69224;PMS1003;56333;51.306;17.056;2023-02-15T06:16:08;43.20;22.20;
69224;PMS1003;56333;51.306;17.056;2023-02-15T06:17:37;44.60;22.80;
69224;PMS1003;56333;51.306;17.056;2023-02-15T06:19:06;43.20;22.30;
69224;PMS1003;56333;51.306;17.056;2023-02-15T06:20:35;43.70;22.90;
69224;PMS1003;56333;51.306;17.056;2023-02-15T06:22:04;48.20;23.10;
69224;PMS1003;56333;51.306;17.056;2023-02-15T06:23:33;47.00;21.80;
69224;PMS1003;56333;51.306;17.056;2023-02-15T06:25:04;43.90;22.30;
69224;PMS1003;56333;51.306;17.056;2023-02-15T06:26:35;43.10;22.10;
69224;PMS1003;56333;51.306;17.056;2023-02-15T06:28:05;47.10;22.10;
69224;PMS1003;56333;51.306;17.056;2023-02-15T06:29:33;44.20;21.50;
69224;PMS1003;56333;51.306;17.056;2023-02-15T06:31:03;40.80;21.40;
69224;PMS1003;56333;51.306;17.056;2023-02-15T06:32:34;42.00;21.80;
69224;PMS1003;56333;51.306;17.056;2023-02-15T06:34:03;45.40;22.80;
69224;PMS1003;56333;51.306;17.056;2023-02-15T06:35:33;43.80;22.80;
69224;PMS1003;56333;51.306;17.056;2023-02-15T06:37:02;45.10;22.30;
69224;PMS1003;56333;51.306;17.056;2023-02-15T06:38:36;44.00;22.20;
69224;PMS1003;56333;51.306;17.056;2023-02-15T06:40:10;45.00;22.90;
69224;PMS1003;56333;51.306;17.056;2023-02-15T06:41:40;47.90;24.10;
69224;PMS1003;56333;51.306;17.056;2023-02-15T06:43:12;43.30;22.50;
69224;PMS1003;56333;51.306;17.056;2023-02-15T06:46:11;42.80;21.60;
69224;PMS1003;56333;51.306;17.056;2023-02-15T06:47:42;44.10;21.20;
69224;PMS1003;56333;51.306;17.056;2023-02-15T06:49:13;42.50;20.90;
69224;PMS1003;56333;51.306;17.056;2023-02-15T06:50:42;37.40;20.40;
69224;PMS1003;56333;51.306;17.056;2023-02-15T06:52:11;39.60;20.90;
69224;PMS1003;56333;51.306;17.056;2023-02-15T06:53:40;43.70;22.40;
69224;PMS1003;56333;51.306;17.056;2023-02-15T06:55:10;46.00;23.40;
69224;PMS1003;56333;51.306;17.056;2023-02-15T06:56:39;43.00;22.50;
69224;PMS1003;56333;51.306;17.056;2023-02-15T06:58:07;41.70;22.50;
69224;PMS1003;56333;51.306;17.056;2023-02-15T06:59:38;45.00;22.70;
69224;PMS1003;56333;51.306;17.056;2023-02-15T07:01:09;46.40;24.30;
69224;PMS1003;56333;51.306;17.056;2023-02-15T07:02:41;44.90;22.90;
69224;PMS1003;56333;51.306;17.056;2023-02-15T07:05:38;46.80;22.60;
69224;PMS1003;56333;51.306;17.056;2023-02-15T07:07:11;40.60;22.50;
69224;PMS1003;56333;51.306;17.056;2023-02-15T07:08:41;41.00;22.20;
69224;PMS1003;56333;51.306;17.056;2023-02-15T07:10:11;42.10;22.10;
69224;PMS1003;56333;51.306;17.056;2023-02-15T07:11:41;42.30;22.50;
69224;PMS1003;56333;51.306;17.056;2023-02-15T07:13:28;41.10;21.70;
69224;PMS1003;56333;51.306;17.056;2023-02-15T07:14:58;41.50;23.00;
69224;PMS1003;56333;51.306;17.056;2023-02-15T07:16:28;44.70;23.20;
69224;PMS1003;56333;51.306;17.056;2023-02-15T07:17:58;44.00;22.50;
69224;PMS1003;56333;51.306;17.056;2023-02-15T07:19:27;45.20;22.50;
69224;PMS1003;56333;51.306;17.056;2023-02-15T07:20:59;41.60;21.70;
69224;PMS1003;56333;51.306;17.056;2023-02-15T07:22:47;38.30;20.50;
69224;PMS1003;56333;51.306;17.056;2023-02-15T07:24:27;38.90;20.40;
69224;PMS1003;56333;51.306;17.056;2023-02-15T07:26:02;41.10;21.10;
69224;PMS1003;56333;51.306;17.056;2023-02-15T07:27:37;40.20;22.20;
69224;PMS1003;56333;51.306;17.056;2023-02-15T07:29:17;43.20;22.40;
69224;PMS1003;56333;51.306;17.056;2023-02-15T07:30:55;43.30;23.00;
69224;PMS1003;56333;51.306;17.056;2023-02-15T07:32:43;44.20;24.30;
69224;PMS1003;56333;51.306;17.056;2023-02-15T07:34:31;46.70;24.20;
69224;PMS1003;56333;51.306;17.056;2023-02-15T07:36:05;47.80;23.90;
69224;PMS1003;56333;51.306;17.056;2023-02-15T07:37:39;45.70;23.00;
69224;PMS1003;56333;51.306;17.056;2023-02-15T07:39:11;52.20;25.50;
69224;PMS1003;56333;51.306;17.056;2023-02-15T07:40:43;45.10;23.60;
69224;PMS1003;56333;51.306;17.056;2023-02-15T07:42:13;45.70;23.60;
69224;PMS1003;56333;51.306;17.056;2023-02-15T07:43:45;48.00;23.70;
69224;PMS1003;56333;51.306;17.056;2023-02-15T07:45:22;46.20;24.80;
69224;PMS1003;56333;51.306;17.056;2023-02-15T07:46:56;48.60;24.40;
69224;PMS1003;56333;51.306;17.056;2023-02-15T07:48:26;50.50;26.10;
69224;PMS1003;56333;51.306;17.056;2023-02-15T07:49:58;52.00;25.10;
69224;PMS1003;56333;51.306;17.056;2023-02-15T07:51:28;48.60;25.10;
69224;PMS1003;56333;51.306;17.056;2023-02-15T07:52:58;48.40;24.60;
69224;PMS1003;56333;51.306;17.056;2023-02-15T07:54:34;49.60;24.20;
69224;PMS1003;56333;51.306;17.056;2023-02-15T07:56:04;46.80;24.20;
69224;PMS1003;56333;51.306;17.056;2023-02-15T07:57:37;44.60;23.20;
69224;PMS1003;56333;51.306;17.056;2023-02-15T07:59:07;44.90;23.50;
69224;PMS1003;56333;51.306;17.056;2023-02-15T08:00:40;46.80;23.80;
69224;PMS1003;56333;51.306;17.056;2023-02-15T08:02:24;46.80;24.70;
69224;PMS1003;56333;51.306;17.056;2023-02-15T08:03:57;46.60;24.40;
69224;PMS1003;56333;51.306;17.056;2023-02-15T08:05:29;50.10;24.10;
69224;PMS1003;56333;51.306;17.056;2023-02-15T08:07:03;49.40;24.60;
69224;PMS1003;56333;51.306;17.056;2023-02-15T08:08:39;48.60;23.50;
69224;PMS1003;56333;51.306;17.056;2023-02-15T08:10:23;47.60;24.90;
69224;PMS1003;56333;51.306;17.056;2023-02-15T08:12:19;45.10;23.30;
69224;PMS1003;56333;51.306;17.056;2023-02-15T08:13:50;42.10;22.40;
69224;PMS1003;56333;51.306;17.056;2023-02-15T08:15:20;44.60;23.40;
69224;PMS1003;56333;51.306;17.056;2023-02-15T08:16:54;47.00;23.80;
69224;PMS1003;56333;51.306;17.056;2023-02-15T08:18:33;45.30;23.40;
69224;PMS1003;56333;51.306;17.056;2023-02-15T08:20:04;46.60;24.30;
69224;PMS1003;56333;51.306;17.056;2023-02-15T08:21:40;51.00;24.90;
69224;PMS1003;56333;51.306;17.056;2023-02-15T08:23:12;47.10;25.50;
69224;PMS1003;56333;51.306;17.056;2023-02-15T08:26:33;50.30;26.50;
69224;PMS1003;56333;51.306;17.056;2023-02-15T08:28:03;49.40;25.00;
69224;PMS1003;56333;51.306;17.056;2023-02-15T08:31:15;49.80;25.60;
69224;PMS1003;56333;51.306;17.056;2023-02-15T08:32:46;51.30;27.10;
69224;PMS1003;56333;51.306;17.056;2023-02-15T08:34:21;56.20;27.00;
69224;PMS1003;56333;51.306;17.056;2023-02-15T08:37:40;57.80;29.40;
69224;PMS1003;56333;51.306;17.056;2023-02-15T08:39:12;49.50;26.00;
69224;PMS1003;56333;51.306;17.056;2023-02-15T08:40:43;49.70;26.40;
69224;PMS1003;56333;51.306;17.056;2023-02-15T08:42:31;53.40;27.90;
69224;PMS1003;56333;51.306;17.056;2023-02-15T08:44:06;48.70;26.30;
69224;PMS1003;56333;51.306;17.056;2023-02-15T08:45:37;53.50;26.80;
69224;PMS1003;56333;51.306;17.056;2023-02-15T08:47:09;47.90;25.70;
69224;PMS1003;56333;51.306;17.056;2023-02-15T08:48:42;44.30;24.30;
69224;PMS1003;56333;51.306;17.056;2023-02-15T08:50:12;50.20;24.90;
69224;PMS1003;56333;51.306;17.056;2023-02-15T08:51:42;50.20;24.70;
69224;PMS1003;56333;51.306;17.056;2023-02-15T08:53:13;49.50;24.50;
69224;PMS1003;56333;51.306;17.056;2023-02-15T08:54:49;55.30;26.40;
69224;PMS1003;56333;51.306;17.056;2023-02-15T08:56:21;66.20;30.30;
69224;PMS1003;56333;51.306;17.056;2023-02-15T08:58:04;61.50;28.40;
69224;PMS1003;56333;51.306;17.056;2023-02-15T08:59:34;61.00;28.40;
69224;PMS1003;56333;51.306;17.056;2023-02-15T09:01:27;56.70;28.60;
69224;PMS1003;56333;51.306;17.056;2023-02-15T09:02:58;50.10;27.20;
69224;PMS1003;56333;51.306;17.056;2023-02-15T09:04:31;57.40;28.40;
69224;PMS1003;56333;51.306;17.056;2023-02-15T09:06:05;62.90;32.10;
69224;PMS1003;56333;51.306;17.056;2023-02-15T09:07:34;61.20;31.50;
69224;PMS1003;56333;51.306;17.056;2023-02-15T09:09:53;55.10;27.20;
69224;PMS1003;56333;51.306;17.056;2023-02-15T09:11:32;51.60;26.40;
69224;PMS1003;56333;51.306;17.056;2023-02-15T09:13:04;56.20;28.50;
69224;PMS1003;56333;51.306;17.056;2023-02-15T09:14:35;58.70;29.50;
69224;PMS1003;56333;51.306;17.056;2023-02-15T09:16:07;49.40;26.00;
69224;PMS1003;56333;51.306;17.056;2023-02-15T09:17:38;58.70;28.60;
69224;PMS1003;56333;51.306;17.056;2023-02-15T09:19:08;49.30;25.30;
69224;PMS1003;56333;51.306;17.056;2023-02-15T09:20:40;46.90;25.00;
69224;PMS1003;56333;51.306;17.056;2023-02-15T09:23:37;47.90;24.40;
69224;PMS1003;56333;51.306;17.056;2023-02-15T09:25:07;47.40;25.70;
69224;PMS1003;56333;51.306;17.056;2023-02-15T09:26:39;42.80;23.30;
69224;PMS1003;56333;51.306;17.056;2023-02-15T09:28:10;50.30;27.00;